Time;durP1;ratioP1;P1;durP2;ratioP2;P2;SDS_P1;SDS_P2;PMS_P1;PMS_P2;Temp;Humidity;BMP_temperature;BMP_pressure;BME280_temperature;BME280_humidity;BME280_pressure;Samples;Min_cycle;Max_cycle;Signal;HPM_P1;HPM_P2
2023/04/15 00:13:08;;;;;;;13.60;9.30;;;;;;;10.65;79.92;97337.86;435860;1253;98939;-44
2023/04/15 00:23:15;;;;;;;12.60;8.80;;;;;;;10.62;80.07;97337.11;435714;1253;112641;-39
2023/04/15 00:33:24;;;;;;;10.90;8.60;;;;;;;10.62;79.76;97339.48;435877;1253;106935;-41
2023/04/15 00:43:31;;;;;;;14.90;9.70;;;;;;;10.63;79.70;97336.48;435726;1253;99288;-41
2023/04/15 00:53:39;;;;;;;15.00;10.30;;;;;;;10.56;79.88;97335.09;435714;1252;109635;-41
2023/04/15 01:03:46;;;;;;;12.40;9.60;;;;;;;10.43;80.18;97341.14;435826;1249;99894;-40
2023/04/15 01:13:55;;;;;;;12.50;8.80;;;;;;;10.41;80.02;97350.11;435759;1251;110963;-41
2023/04/15 01:24:01;;;;;;;;;;;;;;;10.43;79.79;97358.27;436884;1250;106562;-41
2023/04/15 01:34:09;;;;;;;16.60;9.50;;;;;;;10.43;79.81;97359.81;436305;1253;99255;-41
2023/04/15 01:44:16;;;;;;;11.60;8.30;;;;;;;10.44;80.01;97352.73;436331;1251;108139;-41
2023/04/15 01:54:23;;;;;;;11.40;8.80;;;;;;;10.49;79.96;97360.09;436415;1251;99209;-42
2023/04/15 02:04:31;;;;;;;13.40;10.30;;;;;;;10.49;79.90;97354.11;436479;1251;112604;-42
2023/04/15 02:14:38;;;;;;;14.00;9.70;;;;;;;10.40;79.82;97376.85;436298;1252;109142;-41
2023/04/15 02:34:53;;;;;;;10.20;7.70;;;;;;;10.37;80.18;97384.23;436327;1253;107455;-41
2023/04/15 02:45:00;;;;;;;7.40;6.40;;;;;;;10.44;80.19;97406.21;436264;1251;99228;-41
2023/04/15 02:55:08;;;;;;;11.20;7.00;;;;;;;10.42;80.19;97401.88;436476;1253;111102;-41
2023/04/15 03:05:16;;;;;;;11.30;7.40;;;;;;;10.45;80.15;97414.35;436369;1247;107844;-41
2023/04/15 03:15:22;;;;;;;12.70;8.90;;;;;;;10.47;80.05;97412.34;436325;1252;99266;-42
2023/04/15 03:25:29;;;;;;;11.70;8.50;;;;;;;10.28;80.30;97417.70;436361;1253;108316;-42
2023/04/15 03:35:36;;;;;;;10.30;7.70;;;;;;;10.16;80.07;97418.73;436517;1251;99226;-42
2023/04/15 03:45:43;;;;;;;10.00;6.90;;;;;;;10.14;80.16;97424.03;436025;1247;494056;-41
2023/04/15 03:55:51;;;;;;;14.70;8.30;;;;;;;10.14;80.13;97430.16;436254;1247;107263;-41
2023/04/15 04:05:58;;;;;;;15.60;9.50;;;;;;;10.17;80.17;97446.89;436374;1247;99279;-40
2023/04/15 04:16:05;;;;;;;15.10;10.80;;;;;;;10.16;80.18;97451.04;436397;1253;108309;-41
2023/04/15 04:26:13;;;;;;;13.60;9.70;;;;;;;10.21;80.40;97455.86;436471;1247;99221;-41
2023/04/15 04:36:20;;;;;;;15.80;10.80;;;;;;;10.29;80.44;97463.26;436435;1247;114031;-42
2023/04/15 04:46:27;;;;;;;10.90;9.30;;;;;;;10.34;80.13;97468.63;436376;1247;107531;-41
2023/04/15 04:56:34;;;;;;;15.90;9.70;;;;;;;10.55;79.92;97469.41;436254;1247;99215;-40
2023/04/15 05:06:41;;;;;;;14.30;9.10;;;;;;;10.91;79.77;97487.28;436289;1253;108558;-40
2023/04/15 05:16:48;;;;;;;21.50;12.20;;;;;;;11.04;79.24;97503.51;436421;1253;98036;-40
2023/04/15 05:37:02;;;;;;;23.30;14.70;;;;;;;10.83;78.38;97512.36;436491;1247;107376;-42
2023/04/15 05:47:09;;;;;;;24.30;14.60;;;;;;;10.97;78.37;97519.04;436445;1253;99242;-42
2023/04/15 05:57:16;;;;;;;22.80;14.00;;;;;;;10.96;78.07;97525.33;436471;1252;108574;-41
2023/04/15 06:07:24;;;;;;;27.80;16.80;;;;;;;10.71;78.16;97544.80;436421;1248;99244;-42
2023/04/15 06:17:31;;;;;;;24.30;16.10;;;;;;;10.69;77.95;97559.36;436363;1253;113240;-42
2023/04/15 06:27:38;;;;;;;20.70;12.80;;;;;;;10.69;77.65;97560.64;436364;1247;108423;-41
2023/04/15 06:37:45;;;;;;;20.20;13.60;;;;;;;10.72;77.37;97558.91;436329;1252;99306;-42
2023/04/15 06:47:52;;;;;;;22.50;13.60;;;;;;;10.84;77.35;97568.38;436469;1253;108696;-41
2023/04/15 07:08:04;;;;;;;18.10;9.90;;;;;;;11.52;76.49;97595.27;436398;1249;111082;-41
2023/04/15 07:28:17;;;;;;;27.00;15.50;;;;;;;11.70;74.89;97617.67;436314;1248;99237;-41
2023/04/15 07:38:24;;;;;;;35.30;19.90;;;;;;;11.86;74.25;97616.98;436353;1253;108162;-42
2023/04/15 07:48:31;;;;;;;7.60;4.90;;;;;;;12.06;73.60;97614.01;436273;1253;99231;-41
2023/04/15 07:58:39;;;;;;;;;;;;;;;12.36;72.89;97615.34;436581;1261;112152;-41
2023/04/15 08:08:46;;;;;;;6.10;3.80;;;;;;;12.84;71.98;97628.34;436382;1254;108220;-41
2023/04/15 08:18:55;;;;;;;6.40;3.00;;;;;;;13.20;71.68;97623.86;436381;1247;99861;-40
2023/04/15 08:29:03;;;;;;;2.70;1.90;;;;;;;13.94;71.11;97621.38;436449;1254;109245;-41
2023/04/15 08:39:10;;;;;;;13.80;9.10;;;;;;;14.57;68.38;97620.90;436448;1254;99362;-40
2023/04/15 08:49:17;;;;;;;2.80;2.00;;;;;;;14.94;67.79;97620.95;436287;1254;112804;-42
2023/04/15 08:59:23;;;;;;;4.10;3.80;;;;;;;15.49;66.52;97614.86;436433;1252;107055;-41
2023/04/15 09:09:30;;;;;;;1.70;1.50;;;;;;;15.87;65.36;97618.38;436814;1259;97975;-42
2023/04/15 09:19:37;;;;;;;1.50;1.30;;;;;;;16.02;64.37;97626.89;436587;1252;107773;-42
2023/04/15 09:29:44;;;;;;;2.00;1.30;;;;;;;15.87;61.92;97624.40;436332;1252;100994;-40
2023/04/15 09:39:50;;;;;;;3.10;1.30;;;;;;;15.54;61.04;97620.08;436512;1248;111714;-41
2023/04/15 09:50:01;;;;;;;2.00;1.00;;;;;;;15.77;61.09;97620.26;436238;1252;108592;-42
2023/04/15 10:00:10;;;;;;;2.50;1.60;;;;;;;15.96;60.49;97622.13;436393;1254;97958;-41
2023/04/15 10:10:18;;;;;;;1.90;1.40;;;;;;;16.49;59.83;97619.77;436288;1261;109017;-41
2023/04/15 10:20:27;;;;;;;1.70;1.40;;;;;;;16.35;56.94;97620.42;436242;1248;99317;-41
2023/04/15 10:30:32;;;;;;;2.70;1.80;;;;;;;16.30;54.22;97617.40;436345;1248;112114;-42
2023/04/15 10:40:41;;;;;;;2.70;1.60;;;;;;;16.19;54.27;97612.89;436263;1261;108925;-42
2023/04/15 10:50:56;;;;;;;1.90;1.20;;;;;;;16.48;53.87;97610.76;436361;1248;99287;-42
2023/04/15 11:01:03;;;;;;;1.30;1.10;;;;;;;16.03;53.35;97616.90;436444;1261;109479;-42
2023/04/15 11:21:17;;;;;;;1.80;1.00;;;;;;;16.06;54.34;97623.21;436411;1248;112843;-41
2023/04/15 11:31:27;;;;;;;1.30;1.20;;;;;;;15.83;53.66;97626.27;436244;1253;108626;-40
2023/04/15 11:41:35;;;;;;;1.10;1.00;;;;;;;15.58;53.53;97633.03;436346;1253;99371;-41
2023/04/15 11:51:42;;;;;;;4.60;2.50;;;;;;;15.29;53.16;97640.14;436383;1263;108154;-41
2023/04/15 12:01:51;;;;;;;2.20;2.00;;;;;;;14.90;52.52;97648.74;436398;1248;98572;-42
2023/04/15 12:11:58;;;;;;;7.40;2.70;;;;;;;14.45;52.97;97660.51;436468;1253;111178;-42
2023/04/15 12:22:08;;;;;;;4.90;3.00;;;;;;;13.96;52.06;97668.89;436430;1247;106888;-42
2023/04/15 12:32:14;;;;;;;;;;;;;;;13.64;51.94;97673.20;436385;1248;99222;-42
2023/04/15 12:42:21;;;;;;;5.00;3.40;;;;;;;13.60;53.08;97682.52;436383;1254;107120;-41
2023/04/15 12:52:29;;;;;;;6.70;2.70;;;;;;;13.65;53.17;97680.73;436363;1247;99256;-41
2023/04/15 13:02:36;;;;;;;5.80;4.20;;;;;;;13.98;53.78;97675.10;436386;1253;111412;-42
2023/04/15 13:12:45;;;;;;;4.90;4.40;;;;;;;14.60;54.30;97686.73;436294;1248;108303;-42
2023/04/15 13:22:53;;;;;;;7.50;4.80;;;;;;;14.60;54.82;97690.30;436395;1247;97973;-40
2023/04/15 13:33:00;;;;;;;10.00;6.00;;;;;;;14.73;54.79;97690.52;436515;1252;107925;-41
2023/04/15 13:43:08;;;;;;;9.90;6.80;;;;;;;14.94;54.72;97695.44;436294;1253;99243;-42
2023/04/15 13:53:15;;;;;;;6.80;5.00;;;;;;;14.68;54.68;97702.89;436371;1248;112934;-41
2023/04/15 14:03:22;;;;;;;5.90;4.80;;;;;;;14.45;55.26;97705.99;436370;1247;107528;-41
2023/04/15 14:13:30;;;;;;;9.00;5.30;;;;;;;14.07;55.79;97715.17;436476;1247;98045;-41
2023/04/15 14:23:37;;;;;;;5.10;4.10;;;;;;;13.63;56.49;97725.96;436363;1253;107631;-41
2023/04/15 14:33:44;;;;;;;8.00;5.00;;;;;;;13.32;56.77;97739.84;436274;1255;99330;-41
2023/04/15 14:43:51;;;;;;;8.00;5.60;;;;;;;12.90;58.05;97755.73;436433;1253;112452;-42
2023/04/15 14:53:57;;;;;;;7.80;5.00;;;;;;;12.56;59.74;97763.61;436161;1261;107859;-41
2023/04/15 15:04:05;;;;;;;7.40;3.60;;;;;;;12.26;60.09;97767.68;436250;1247;99256;-41
2023/04/15 15:14:12;;;;;;;4.50;3.60;;;;;;;12.10;59.63;97778.77;436375;1252;108544;-43
2023/04/15 15:24:19;;;;;;;7.50;4.60;;;;;;;12.05;59.54;97784.79;436301;1248;97976;-40
2023/04/15 15:34:25;;;;;;;8.30;4.20;;;;;;;12.07;59.60;97790.27;436399;1247;111733;-40
2023/04/15 15:44:32;;;;;;;7.50;4.60;;;;;;;12.09;59.63;97807.13;436042;1247;601695;-42
2023/04/15 15:54:41;;;;;;;5.30;3.70;;;;;;;12.15;59.72;97806.08;436612;1252;99367;-42
2023/04/15 16:04:49;;;;;;;4.60;3.50;;;;;;;12.06;59.73;97814.36;436241;1253;106888;-41
2023/04/15 16:14:56;;;;;;;3.30;2.60;;;;;;;12.03;60.09;97813.61;436335;1247;99352;-41
2023/04/15 16:25:03;;;;;;;5.50;3.10;;;;;;;12.10;60.06;97814.45;436384;1253;112893;-40
2023/04/15 16:35:11;;;;;;;5.90;3.70;;;;;;;12.13;60.24;97815.20;436378;1248;107633;-41
2023/04/15 16:45:19;;;;;;;6.40;3.30;;;;;;;12.14;60.26;97827.33;436314;1247;99211;-41
2023/04/15 16:55:26;;;;;;;10.60;5.70;;;;;;;12.12;60.43;97829.83;436272;1253;108459;-42
2023/04/15 17:05:34;;;;;;;8.50;6.00;;;;;;;12.07;60.50;97850.89;436492;1247;99218;-42
2023/04/15 17:15:41;;;;;;;8.70;5.40;;;;;;;11.92;60.73;97872.64;436386;1253;111840;-40
2023/04/15 17:25:50;;;;;;;24.00;5.70;;;;;;;11.68;60.98;97881.66;436331;1253;107186;-42
2023/04/15 17:35:58;;;;;;;21.30;9.70;;;;;;;11.38;61.43;97893.52;436234;1253;97978;-40
2023/04/15 17:46:06;;;;;;;9.10;5.90;;;;;;;11.10;61.83;97907.20;436339;1253;107423;-48
2023/04/15 17:56:13;;;;;;;8.90;6.20;;;;;;;10.89;62.46;97929.38;436354;1252;99323;-41
2023/04/15 18:16:27;;;;;;;17.50;8.90;;;;;;;10.50;63.71;97964.91;436214;1250;108126;-40
2023/04/15 18:26:34;;;;;;;20.60;10.40;;;;;;;10.16;64.39;97972.21;436360;1247;99253;-41
2023/04/15 18:36:41;;;;;;;17.60;9.20;;;;;;;9.93;64.69;97981.52;436231;1253;109359;-40
2023/04/15 18:46:49;;;;;;;22.10;11.80;;;;;;;9.82;65.24;97990.61;436304;1247;99250;-41
2023/04/15 18:56:57;;;;;;;26.50;13.20;;;;;;;9.71;65.77;97989.21;436526;1247;111237;-40
2023/04/15 19:07:03;;;;;;;23.30;14.00;;;;;;;9.46;66.26;98010.79;436377;1253;111611;-40
2023/04/15 19:17:10;;;;;;;22.60;13.20;;;;;;;9.16;66.61;98034.63;436248;1253;97979;-41
2023/04/15 19:27:17;;;;;;;23.90;13.80;;;;;;;9.09;67.33;98040.55;436316;1247;108930;-40
2023/04/15 19:37:25;;;;;;;20.80;14.20;;;;;;;9.10;67.91;98038.09;436433;1253;98008;-41
2023/04/15 19:47:33;;;;;;;27.30;16.20;;;;;;;9.04;68.31;98042.61;436356;1247;111981;-41
2023/04/15 19:57:40;;;;;;;28.60;16.90;;;;;;;8.82;68.65;98050.17;436231;1253;107457;-41
2023/04/15 20:17:54;;;;;;;24.00;14.40;;;;;;;8.55;69.63;98059.36;436259;1247;109577;-42
2023/04/15 20:28:02;;;;;;;24.30;14.40;;;;;;;8.56;70.31;98066.04;436340;1253;98296;-41
2023/04/15 20:38:09;;;;;;;32.60;17.40;;;;;;;8.58;70.62;98066.70;436299;1253;110914;-42
2023/04/15 20:48:18;;;;;;;157.20;63.30;;;;;;;8.40;70.59;98077.19;436366;1253;108581;-41
2023/04/15 21:08:31;;;;;;;43.10;24.10;;;;;;;7.77;70.85;98106.39;436313;1254;108340;-41
2023/04/15 21:18:39;;;;;;;57.30;30.80;;;;;;;7.73;71.57;98111.66;436236;1251;99241;-41
2023/04/15 21:28:46;;;;;;;64.60;32.60;;;;;;;7.83;72.22;98116.19;436332;1252;110710;-41
2023/04/15 21:38:53;;;;;;;76.30;40.30;;;;;;;7.93;72.40;98121.30;436474;1247;107993;-43
2023/04/15 21:48:58;;;;;;;58.30;31.90;;;;;;;7.81;72.60;98119.55;436302;1248;99225;-43
2023/04/15 22:09:13;;;;;;;67.50;36.30;;;;;;;7.44;72.94;98131.45;436274;1247;99845;-41
2023/04/15 22:19:20;;;;;;;64.30;34.80;;;;;;;7.22;72.93;98133.32;436257;1247;111496;-41
2023/04/15 22:29:27;;;;;;;71.10;35.70;;;;;;;7.20;73.70;98142.16;436270;1251;107705;-41
2023/04/15 22:39:35;;;;;;;49.80;30.20;;;;;;;7.26;73.82;98153.98;436377;1253;98810;-42
2023/04/15 22:49:43;;;;;;;68.70;39.80;;;;;;;7.31;74.30;98169.01;436393;1253;107260;-40
2023/04/15 22:59:49;;;;;;;53.60;31.60;;;;;;;7.23;74.37;98179.67;436225;1252;98016;-40
2023/04/15 23:20:03;;;;;;;47.20;28.40;;;;;;;7.23;75.02;98192.29;436349;1248;107613;-42
2023/04/15 23:30:11;;;;;;;36.70;22.20;;;;;;;7.33;75.24;98193.55;436370;1253;98473;-41
2023/04/15 23:40:18;;;;;;;32.30;21.30;;;;;;;7.40;75.44;98196.40;436203;1247;107120;-41
2023/04/15 23:50:26;;;;;;;60.20;34.00;;;;;;;7.49;75.72;98197.67;436331;1248;99141;-41
